Time;durP1;ratioP1;P1;durP2;ratioP2;P2;SDS_P1;SDS_P2;PMS_P1;PMS_P2;Temp;Humidity;BMP_temperature;BMP_pressure;BME280_temperature;BME280_humidity;BME280_pressure;Samples;Min_cycle;Max_cycle;Signal;HPM_P1;HPM_P2
2022/06/02 00:03:03;;;;;;;42.90;28.42;;;5.90;99.90;;;;;;4982897;28;20070;-73
2022/06/02 00:06:00;;;;;;;39.97;26.92;;;5.80;99.90;;;;;;4981950;28;20096;-72
2022/06/02 00:09:02;;;;;;;37.03;27.65;;;5.70;99.90;;;;;;4983629;28;20098;-72
2022/06/02 00:11:52;;;;;;;41.25;29.88;;;5.60;99.90;;;;;;4981218;28;20712;-72
2022/06/02 00:14:29;;;;;;;40.65;28.15;;;5.50;99.90;;;;;;4982727;28;20062;-72
2022/06/02 00:17:04;;;;;;;47.20;29.90;;;5.50;99.90;;;;;;4981390;28;20386;-72
2022/06/02 00:19:47;;;;;;;42.15;28.42;;;5.50;99.90;;;;;;4990588;28;20074;-72
2022/06/02 00:22:28;;;;;;;42.67;29.75;;;5.40;99.90;;;;;;4982277;28;20050;-73
2022/06/02 00:25:23;;;;;;;39.05;30.85;;;5.50;99.90;;;;;;4983001;28;20708;-71
2022/06/02 00:28:08;;;;;;;;;;;5.50;99.90;;;;;;4968237;28;20416;-72
2022/06/02 00:31:09;;;;;;;45.90;31.00;;;5.40;99.90;;;;;;4965168;28;20349;-72
2022/06/02 00:33:49;;;;;;;46.67;30.48;;;5.50;99.90;;;;;;4967289;28;20556;-72
2022/06/02 00:36:25;;;;;;;54.97;33.33;;;5.40;99.90;;;;;;4996988;28;20069;-72
2022/06/02 00:38:53;;;;;;;54.63;33.78;;;5.50;99.90;;;;;;4981693;28;20082;-72
2022/06/02 00:41:35;;;;;;;52.53;35.15;;;5.50;99.90;;;;;;4980736;28;20069;-72
2022/06/02 00:44:14;;;;;;;75.20;38.28;;;5.40;99.90;;;;;;4981659;28;20561;-72
2022/06/02 00:47:02;;;;;;;53.58;32.70;;;5.40;99.90;;;;;;4982790;28;20046;-72
2022/06/02 00:50:15;;;;;;;48.63;32.75;;;5.20;99.90;;;;;;4989957;28;20408;-72
2022/06/02 00:52:58;;;;;;;49.22;32.65;;;5.20;99.90;;;;;;4965215;28;20085;-72
2022/06/02 00:58:50;;;;;;;53.28;32.95;;;5.20;99.90;;;;;;4981792;28;20308;-75
2022/06/02 01:01:32;;;;;;;48.85;32.08;;;5.00;99.90;;;;;;4980870;28;20136;-74
2022/06/02 01:04:04;;;;;;;52.50;33.90;;;5.00;99.90;;;;;;4982592;28;20046;-74
2022/06/02 01:06:40;;;;;;;55.90;35.60;;;5.00;99.90;;;;;;4981834;28;20043;-74
2022/06/02 01:09:12;;;;;;;59.28;36.00;;;5.00;99.90;;;;;;4980273;28;20287;-75
2022/06/02 01:12:00;;;;;;;54.92;35.30;;;4.90;99.90;;;;;;4981839;28;20203;-75
2022/06/02 01:15:04;;;;;;;51.13;34.30;;;5.00;99.90;;;;;;4982062;28;20120;-74
2022/06/02 01:17:31;;;;;;;62.55;35.75;;;4.90;99.90;;;;;;4979574;28;20077;-74
2022/06/02 01:20:03;;;;;;;62.20;37.58;;;4.90;99.90;;;;;;4992696;28;20575;-73
2022/06/02 01:22:49;;;;;;;58.20;38.63;;;5.00;99.90;;;;;;4994458;28;20107;-74
2022/06/02 01:26:06;;;;;;;67.05;39.63;;;5.00;99.90;;;;;;4988177;28;20050;-75
2022/06/02 01:29:01;;;;;;;70.47;40.45;;;5.00;99.90;;;;;;4949064;28;20453;-74
2022/06/02 01:31:40;;;;;;;69.10;39.72;;;5.00;99.90;;;;;;4962623;28;20156;-74
2022/06/02 01:34:31;;;;;;;76.40;40.42;;;4.90;99.90;;;;;;4962850;28;20082;-75
2022/06/02 01:37:06;;;;;;;70.25;39.90;;;4.90;99.90;;;;;;4981342;28;20042;-74
2022/06/02 01:39:48;;;;;;;68.57;39.88;;;4.80;99.90;;;;;;4982670;28;20057;-73
2022/06/02 01:42:33;;;;;;;64.88;39.22;;;4.80;99.90;;;;;;4981431;28;20054;-74
2022/06/02 01:47:40;;;;;;;85.40;44.78;;;4.80;99.90;;;;;;4930242;28;20384;-73
2022/06/02 01:50:29;;;;;;;86.57;43.05;;;4.70;99.90;;;;;;4914528;29;20059;-73
2022/06/02 01:53:05;;;;;;;86.28;44.22;;;4.80;99.90;;;;;;4930275;29;20192;-73
2022/06/02 01:55:51;;;;;;;90.13;43.30;;;4.80;99.90;;;;;;4932159;28;20416;-73
2022/06/02 01:58:53;;;;;;;67.93;40.70;;;4.60;99.90;;;;;;4916132;29;20055;-73
2022/06/02 02:01:39;;;;;;;70.10;40.67;;;4.60;99.90;;;;;;4908563;29;20055;-73
2022/06/02 02:04:05;;;;;;;;;;;4.70;99.90;;;;;;4920301;29;20461;-72
2022/06/02 02:07:20;;;;;;;69.40;39.30;;;4.60;99.90;;;;;;4920215;28;19927;-72
2022/06/02 02:10:06;;;;;;;74.70;39.50;;;4.80;99.90;;;;;;4902044;29;20048;-73
2022/06/02 02:12:52;;;;;;;88.28;43.58;;;4.80;99.90;;;;;;4920427;29;20051;-73
2022/06/02 02:15:37;;;;;;;80.80;41.17;;;4.80;99.90;;;;;;4933746;28;20424;-72
2022/06/02 02:18:13;;;;;;;105.32;48.25;;;4.80;99.90;;;;;;4921250;29;20083;-72
2022/06/02 02:21:03;;;;;;;92.05;44.65;;;5.00;99.90;;;;;;4945210;28;20239;-73
2022/06/02 02:23:47;;;;;;;105.82;48.00;;;5.00;99.90;;;;;;4937424;28;20126;-73
2022/06/02 02:26:36;;;;;;;91.40;43.30;;;5.10;99.90;;;;;;4920368;28;20047;-72
2022/06/02 02:29:33;;;;;;;76.07;39.63;;;5.00;99.90;;;;;;4934741;29;20496;-73
2022/06/02 02:32:19;;;;;;;68.75;37.38;;;4.90;99.90;;;;;;4920116;29;20055;-72
2022/06/02 02:34:49;;;;;;;90.00;42.65;;;4.70;99.90;;;;;;4919997;29;20085;-73
2022/06/02 02:37:33;;;;;;;84.03;42.88;;;4.70;99.90;;;;;;4933805;29;20051;-73
2022/06/02 02:40:27;;;;;;;108.97;46.85;;;4.80;99.90;;;;;;4935030;29;20064;-73
2022/06/02 02:43:00;;;;;;;118.32;48.60;;;4.80;99.90;;;;;;4920638;29;20456;-73
2022/06/02 02:45:47;;;;;;;81.72;43.70;;;4.80;99.90;;;;;;4918171;29;20512;-73
2022/06/02 02:48:37;;;;;;;97.75;45.05;;;4.90;99.90;;;;;;4918410;29;20118;-73
2022/06/02 02:51:21;;;;;;;110.30;47.63;;;4.80;99.90;;;;;;4919004;29;20500;-73
2022/06/02 02:53:56;;;;;;;79.60;40.53;;;4.80;99.90;;;;;;4933192;28;20063;-74
2022/06/02 02:56:43;;;;;;;66.55;37.53;;;4.60;99.90;;;;;;4932648;28;20292;-73
2022/06/02 02:59:36;;;;;;;54.88;31.38;;;4.50;99.90;;;;;;4916718;29;20324;-73
2022/06/02 03:02:32;;;;;;;51.70;32.92;;;4.50;99.90;;;;;;4915720;29;20108;-73
2022/06/02 03:05:08;;;;;;;;;;;4.40;99.90;;;;;;4932521;28;20284;-73
2022/06/02 03:07:35;;;;;;;;;;;4.30;99.90;;;;;;4932744;28;20450;-73
2022/06/02 03:10:27;;;;;;;69.93;37.33;;;4.40;99.90;;;;;;4932573;28;20471;-73
2022/06/02 03:13:04;;;;;;;98.25;44.20;;;4.30;99.90;;;;;;4917247;28;20433;-73
2022/06/02 03:15:52;;;;;;;105.05;45.75;;;4.40;99.90;;;;;;4931868;28;20353;-73
2022/06/02 03:18:25;;;;;;;106.10;46.20;;;4.40;99.90;;;;;;4930110;28;21430;-72
2022/06/02 03:21:18;;;;;;;106.60;47.00;;;4.40;99.90;;;;;;4920754;29;20047;-73
2022/06/02 03:24:02;;;;;;;76.43;39.70;;;4.30;99.90;;;;;;4937462;28;20070;-73
2022/06/02 03:26:34;;;;;;;59.50;34.85;;;4.20;99.90;;;;;;4916348;29;20111;-74
2022/06/02 03:29:10;;;;;;;60.70;36.08;;;4.20;99.90;;;;;;4918756;29;20052;-73
2022/06/02 03:32:06;;;;;;;64.55;36.33;;;4.20;99.90;;;;;;4918320;28;20055;-73
2022/06/02 03:34:47;;;;;;;64.85;37.38;;;4.10;99.90;;;;;;4898594;29;20062;-73
2022/06/02 03:37:50;;;;;;;77.22;38.97;;;4.10;99.90;;;;;;4917010;28;20047;-73
2022/06/02 03:40:51;;;;;;;78.63;40.65;;;4.10;99.90;;;;;;4914068;29;20423;-73
2022/06/02 03:43:58;;;;;;;71.65;39.78;;;4.10;99.90;;;;;;4916166;29;20047;-73
2022/06/02 03:46:46;;;;;;;86.40;42.58;;;4.10;99.90;;;;;;4915770;29;20043;-73
2022/06/02 03:50:09;;;;;;;80.50;41.55;;;4.10;99.90;;;;;;4916921;29;20067;-73
2022/06/02 03:53:04;;;;;;;75.53;41.45;;;4.00;99.90;;;;;;4880493;29;20095;-73
2022/06/02 03:55:53;;;;;;;76.78;40.35;;;4.10;99.90;;;;;;4896576;29;20048;-73
2022/06/02 03:58:26;;;;;;;70.93;40.30;;;4.00;99.90;;;;;;4895257;29;20473;-73
2022/06/02 04:00:59;;;;;;;79.13;40.70;;;4.10;99.90;;;;;;4921426;29;20063;-73
2022/06/02 04:04:19;;;;;;;72.32;39.92;;;4.20;99.90;;;;;;4918596;29;20054;-75
2022/06/02 04:07:06;;;;;;;76.82;39.25;;;4.20;99.90;;;;;;4918047;28;20050;-73
2022/06/02 04:09:39;;;;;;;74.53;41.28;;;4.40;99.90;;;;;;4930877;29;20043;-73
2022/06/02 04:15:48;;;;;;;66.18;37.22;;;4.40;99.90;;;;;;4915267;29;20058;-73
2022/06/02 04:18:24;;;;;;;69.95;39.28;;;4.40;99.90;;;;;;4915780;29;20071;-73
2022/06/02 04:21:02;;;;;;;74.63;41.38;;;4.50;99.90;;;;;;4924942;29;20621;-73
2022/06/02 04:23:58;;;;;;;75.63;38.65;;;4.50;99.90;;;;;;4916315;29;20074;-72
2022/06/02 04:26:34;;;;;;;;;;;4.50;99.90;;;;;;4918508;28;20066;-73
2022/06/02 04:29:16;;;;;;;64.75;37.78;;;4.60;99.90;;;;;;4917627;29;19965;-73
2022/06/02 04:32:13;;;;;;;68.10;39.60;;;4.90;99.90;;;;;;4932102;28;20060;-73
2022/06/02 04:35:00;;;;;;;70.63;40.53;;;5.20;99.90;;;;;;4917968;29;20398;-73
2022/06/02 04:37:30;;;;;;;75.13;40.88;;;5.40;99.90;;;;;;4916100;29;20138;-73
2022/06/02 04:40:18;;;;;;;71.82;40.88;;;5.50;99.90;;;;;;4918741;29;20051;-73
2022/06/02 04:42:55;;;;;;;59.65;36.70;;;5.70;99.90;;;;;;4932052;28;20134;-73
2022/06/02 04:45:25;;;;;;;55.33;36.90;;;5.80;99.90;;;;;;4927255;29;20048;-72
2022/06/02 04:48:02;;;;;;;61.75;36.40;;;5.90;99.90;;;;;;4918379;29;20227;-73
2022/06/02 04:50:53;;;;;;;69.35;41.63;;;5.80;99.90;;;;;;4916677;29;20063;-73
2022/06/02 04:53:47;;;;;;;69.35;39.63;;;5.80;99.90;;;;;;4898691;29;20449;-73
2022/06/02 04:57:11;;;;;;;75.60;45.60;;;5.80;99.90;;;;;;4896617;29;20052;-72
2022/06/02 05:00:13;;;;;;;71.85;43.25;;;5.90;99.90;;;;;;4877417;29;20061;-72
2022/06/02 05:02:56;;;;;;;79.80;43.92;;;5.90;99.90;;;;;;4888453;29;20533;-72
2022/06/02 05:05:27;;;;;;;79.82;45.33;;;6.20;99.90;;;;;;4915395;28;20044;-73
2022/06/02 05:08:00;;;;;;;74.95;45.80;;;6.30;99.90;;;;;;4916419;29;20055;-73
2022/06/02 05:11:07;;;;;;;80.15;45.17;;;6.40;99.90;;;;;;4915740;28;20489;-73
2022/06/02 05:14:01;;;;;;;69.63;42.58;;;6.70;99.90;;;;;;4914146;29;20051;-73
2022/06/02 05:16:57;;;;;;;76.15;45.67;;;6.80;99.90;;;;;;4913286;29;20110;-73
2022/06/02 05:19:32;;;;;;;;;;;7.10;99.90;;;;;;4905441;29;20048;-72
2022/06/02 05:22:15;;;;;;;71.38;43.90;;;7.30;99.90;;;;;;4930196;28;19927;-72
2022/06/02 05:24:54;;;;;;;80.53;47.58;;;7.40;99.90;;;;;;4914235;29;20055;-73
2022/06/02 05:27:32;;;;;;;81.72;48.42;;;7.50;99.90;;;;;;4913979;29;20052;-74
2022/06/02 05:30:05;;;;;;;76.57;48.40;;;7.90;99.90;;;;;;4915229;29;20253;-74
2022/06/02 05:32:44;;;;;;;68.63;44.67;;;8.10;99.90;;;;;;4915424;29;20116;-74
2022/06/02 05:35:37;;;;;;;59.25;40.03;;;8.50;99.90;;;;;;4912266;28;20051;-74
2022/06/02 05:38:41;;;;;;;61.80;40.40;;;8.70;99.90;;;;;;4915366;29;20163;-73
2022/06/02 05:41:22;;;;;;;51.65;37.03;;;8.80;99.90;;;;;;4929396;28;20048;-72
2022/06/02 05:43:56;;;;;;;54.15;39.35;;;9.00;99.90;;;;;;4928509;28;20187;-74
2022/06/02 05:46:34;;;;;;;50.03;37.53;;;9.10;99.90;;;;;;4929420;28;20051;-74
2022/06/02 05:49:07;;;;;;;41.97;32.92;;;9.20;99.90;;;;;;4928942;28;20502;-73
2022/06/02 05:51:45;;;;;;;50.20;37.78;;;9.40;99.90;;;;;;4915395;29;20056;-74
2022/06/02 05:54:32;;;;;;;51.35;38.20;;;9.60;99.90;;;;;;4915246;29;20066;-74
2022/06/02 05:57:21;;;;;;;51.05;38.40;;;9.70;99.90;;;;;;4913273;29;20043;-74
2022/06/02 06:00:08;;;;;;;48.53;37.95;;;9.70;99.90;;;;;;4913763;29;20436;-73
2022/06/02 06:02:53;;;;;;;49.25;38.00;;;9.90;99.90;;;;;;4913838;29;20130;-74
2022/06/02 06:05:23;;;;;;;49.97;39.10;;;9.90;99.90;;;;;;4914214;28;20058;-74
2022/06/02 06:08:08;;;;;;;56.63;41.55;;;9.90;99.90;;;;;;4915181;29;20568;-74
2022/06/02 06:10:59;;;;;;;54.22;41.92;;;9.90;99.90;;;;;;4929382;28;20224;-74
2022/06/02 06:13:32;;;;;;;51.25;39.53;;;10.00;99.90;;;;;;4929739;28;20043;-74
2022/06/02 06:16:21;;;;;;;47.35;38.58;;;10.10;99.90;;;;;;4915273;29;20126;-74
2022/06/02 06:19:16;;;;;;;53.55;40.53;;;10.20;99.90;;;;;;4914883;29;20051;-74
2022/06/02 06:22:00;;;;;;;56.08;42.20;;;10.20;99.90;;;;;;4929191;28;20593;-74
2022/06/02 06:24:44;;;;;;;56.95;41.63;;;10.10;99.90;;;;;;4914078;29;20040;-75
2022/06/02 06:27:30;;;;;;;59.53;44.10;;;10.20;99.90;;;;;;4913283;29;20299;-75
2022/06/02 06:30:11;;;;;;;63.13;42.13;;;10.30;99.90;;;;;;4915096;29;20539;-75
2022/06/02 06:32:55;;;;;;;53.50;41.28;;;10.40;99.90;;;;;;4915077;29;20067;-73
2022/06/02 06:35:59;;;;;;;54.30;42.45;;;10.40;99.90;;;;;;4915941;28;20713;-74
2022/06/02 06:38:45;;;;;;;55.58;42.90;;;10.40;99.90;;;;;;4930016;28;20058;-74
2022/06/02 06:41:40;;;;;;;52.25;41.97;;;10.60;99.90;;;;;;4928849;28;20414;-75
2022/06/02 06:44:20;;;;;;;54.47;42.75;;;10.70;99.90;;;;;;4930237;28;20051;-76
2022/06/02 06:47:06;;;;;;;52.72;43.25;;;10.70;99.90;;;;;;4898726;29;20436;-74
2022/06/02 06:49:51;;;;;;;;;;;10.70;99.90;;;;;;4932900;28;20444;-77
2022/06/02 06:52:35;;;;;;;47.85;39.78;;;10.70;99.90;;;;;;4938021;28;20295;-76
2022/06/02 06:55:10;;;;;;;55.35;42.95;;;10.80;99.90;;;;;;4923772;28;20066;-76
2022/06/02 06:57:41;;;;;;;55.28;43.85;;;11.00;99.90;;;;;;4916427;29;20055;-76
2022/06/02 07:00:19;;;;;;;54.65;43.67;;;10.90;99.90;;;;;;4935189;28;20138;-76
2022/06/02 07:03:07;;;;;;;49.78;42.22;;;10.80;99.90;;;;;;4935298;29;20071;-77
2022/06/02 07:05:39;;;;;;;56.63;44.75;;;10.90;99.90;;;;;;4935026;28;20051;-76
2022/06/02 07:08:33;;;;;;;48.13;42.72;;;11.10;99.90;;;;;;4935824;28;20066;-77
2022/06/02 07:12:50;;;;;;;49.08;43.10;;;11.10;99.90;;;;;;4933962;28;20040;-76
2022/06/02 07:14:29;;;;;;;48.35;42.50;;;11.20;99.90;;;;;;4921138;29;20062;-76
2022/06/02 07:16:59;;;;;;;44.33;39.70;;;11.50;99.90;;;;;;4896481;29;20356;-77
2022/06/02 07:19:42;;;;;;;46.80;41.72;;;11.60;99.90;;;;;;4929599;29;20048;-77
2022/06/02 07:22:25;;;;;;;44.70;39.70;;;11.50;99.90;;;;;;4933512;28;20464;-76
2022/06/02 07:25:15;;;;;;;46.15;41.20;;;11.40;99.90;;;;;;4930045;28;20044;-76
2022/06/02 07:27:58;;;;;;;47.00;41.83;;;11.50;99.90;;;;;;4935860;28;20050;-76
2022/06/02 07:30:47;;;;;;;46.63;41.78;;;11.50;99.90;;;;;;4918123;28;20075;-76
2022/06/02 07:33:19;;;;;;;49.15;43.97;;;11.60;99.90;;;;;;4918182;29;20060;-76
2022/06/02 07:36:08;;;;;;;49.67;44.17;;;11.80;99.90;;;;;;4934651;28;20043;-76
2022/06/02 07:38:49;;;;;;;47.90;42.58;;;11.80;99.90;;;;;;4920789;29;20138;-77
2022/06/02 07:41:31;;;;;;;43.17;38.97;;;11.90;99.90;;;;;;4920535;28;20058;-76
2022/06/02 07:44:24;;;;;;;42.70;38.40;;;12.00;99.90;;;;;;4935597;28;20040;-76
2022/06/02 07:47:06;;;;;;;42.78;38.45;;;12.10;99.90;;;;;;4973100;23;20054;-71
2022/06/02 07:50:02;;;;;;;43.47;38.90;;;12.00;99.90;;;;;;4986634;28;20061;-71
2022/06/02 07:52:56;;;;;;;44.08;39.85;;;12.00;99.90;;;;;;4997751;28;20046;-71
2022/06/02 07:55:30;;;;;;;44.88;40.47;;;12.10;99.90;;;;;;5003985;28;20492;-71
2022/06/02 07:58:25;;;;;;;41.40;37.70;;;12.50;99.90;;;;;;4947070;28;20047;-71
2022/06/02 08:01:17;;;;;;;42.17;38.22;;;13.00;99.90;;;;;;4965139;28;20137;-71
2022/06/02 08:04:17;;;;;;;39.65;36.15;;;13.20;99.90;;;;;;4964853;28;20542;-71
2022/06/02 08:06:55;;;;;;;41.60;37.60;;;13.30;99.90;;;;;;4972121;28;20576;-70
2022/06/02 08:09:43;;;;;;;41.72;38.33;;;13.20;99.90;;;;;;4984721;28;20058;-71
2022/06/02 08:12:35;;;;;;;36.85;33.85;;;13.50;99.90;;;;;;4983843;28;20050;-70
2022/06/02 08:15:23;;;;;;;40.15;36.85;;;13.40;99.90;;;;;;4982315;28;20111;-70
2022/06/02 08:18:15;;;;;;;38.75;35.65;;;13.40;99.90;;;;;;4985651;28;20104;-70
2022/06/02 08:21:17;;;;;;;36.63;33.53;;;13.50;99.90;;;;;;4993694;28;20125;-70
2022/06/02 08:24:01;;;;;;;36.65;33.70;;;13.50;99.90;;;;;;5003774;28;20053;-72
2022/06/02 08:26:39;;;;;;;35.22;32.22;;;13.30;99.90;;;;;;4947083;28;20051;-73
2022/06/02 08:29:13;;;;;;;37.38;34.28;;;13.40;99.90;;;;;;4967376;28;20049;-73
2022/06/02 08:31:43;;;;;;;38.97;35.67;;;13.50;99.90;;;;;;4982988;28;20137;-70
2022/06/02 08:34:36;;;;;;;36.85;34.00;;;13.50;99.90;;;;;;4966063;28;20061;-73
2022/06/02 08:37:11;;;;;;;34.10;31.42;;;13.70;99.90;;;;;;4983696;28;20133;-71
2022/06/02 08:39:55;;;;;;;33.33;30.88;;;14.20;99.90;;;;;;4983609;28;20573;-72
2022/06/02 08:42:59;;;;;;;32.60;30.17;;;14.60;99.90;;;;;;4965625;28;20085;-71
2022/06/02 08:45:47;;;;;;;32.50;30.20;;;14.80;99.90;;;;;;4975510;28;20046;-72
2022/06/02 08:48:25;;;;;;;30.95;28.63;;;14.50;99.90;;;;;;4968602;28;20049;-71
2022/06/02 08:51:01;;;;;;;33.20;30.73;;;14.30;99.90;;;;;;4989167;28;20084;-72
2022/06/02 08:53:46;;;;;;;31.80;29.25;;;14.20;99.90;;;;;;4983231;28;20117;-72
2022/06/02 08:56:50;;;;;;;30.93;28.83;;;14.30;99.90;;;;;;4981946;28;20046;-72
2022/06/02 08:59:42;;;;;;;29.77;27.67;;;15.00;99.90;;;;;;4964351;28;20171;-73
2022/06/02 09:02:49;;;;;;;30.45;28.38;;;15.40;99.90;;;;;;4982952;28;20236;-72
2022/06/02 09:05:43;;;;;;;32.20;29.83;;;15.30;99.90;;;;;;4982790;28;20072;-71
2022/06/02 09:08:52;;;;;;;34.25;31.92;;;14.90;99.90;;;;;;4982381;28;20073;-72
2022/06/02 09:11:48;;;;;;;34.25;31.60;;;14.70;99.90;;;;;;4971645;28;20043;-71
2022/06/02 09:14:49;;;;;;;32.35;30.15;;;15.00;99.90;;;;;;4986727;28;20050;-72
2022/06/02 09:17:56;;;;;;;32.47;30.27;;;15.50;99.90;;;;;;4981984;28;20145;-71
2022/06/02 09:20:41;;;;;;;29.00;27.10;;;15.80;99.90;;;;;;4990939;28;20148;-71
2022/06/02 09:23:27;;;;;;;;;;;16.50;99.90;;;;;;4963937;28;20155;-72
2022/06/02 09:26:28;;;;;;;32.47;30.33;;;16.90;99.90;;;;;;4962108;28;19925;-71
2022/06/02 09:29:03;;;;;;;32.90;30.67;;;16.90;99.90;;;;;;4983394;28;20109;-71
2022/06/02 09:31:52;;;;;;;33.35;31.05;;;16.60;99.90;;;;;;4965567;28;20054;-72
2022/06/02 09:34:38;;;;;;;32.90;30.70;;;16.30;99.90;;;;;;4982508;28;20062;-71
2022/06/02 09:37:18;;;;;;;;;;;15.90;99.90;;;;;;4982949;28;20112;-71
2022/06/02 09:40:13;;;;;;;29.25;27.35;;;15.60;99.90;;;;;;4983255;28;19926;-72
2022/06/02 09:43:00;;;;;;;29.27;27.30;;;15.90;99.90;;;;;;4982805;28;20046;-72
2022/06/02 09:45:56;;;;;;;27.27;25.60;;;16.50;99.90;;;;;;4957454;28;20050;-73
2022/06/02 09:48:52;;;;;;;27.25;25.40;;;17.10;99.90;;;;;;4989073;28;20700;-71
2022/06/02 09:51:53;;;;;;;28.05;26.05;;;17.10;99.90;;;;;;4970425;28;20062;-72
2022/06/02 09:54:35;;;;;;;28.15;26.45;;;17.00;99.90;;;;;;4981887;28;20508;-72
2022/06/02 10:00:38;;;;;;;30.40;28.40;;;16.60;99.90;;;;;;4958886;28;20228;-72
2022/06/02 10:03:24;;;;;;;29.45;27.48;;;16.30;99.90;;;;;;4979435;28;20525;-73
2022/06/02 10:06:15;;;;;;;29.70;27.80;;;15.80;99.90;;;;;;4980737;28;20337;-72
2022/06/02 10:09:36;;;;;;;28.83;26.95;;;15.50;99.90;;;;;;4964117;28;20073;-72
2022/06/02 10:15:40;;;;;;;27.58;25.65;;;16.70;99.90;;;;;;4981451;28;20187;-72
2022/06/02 10:18:31;;;;;;;26.50;24.80;;;16.80;99.90;;;;;;4980790;28;20563;-72
2022/06/02 10:21:23;;;;;;;27.02;25.23;;;17.10;99.90;;;;;;4960865;28;20046;-74
2022/06/02 10:24:31;;;;;;;28.75;26.95;;;16.70;99.90;;;;;;4983745;28;20151;-72
2022/06/02 10:27:36;;;;;;;26.17;24.38;;;15.70;99.90;;;;;;4981888;28;20042;-72
2022/06/02 10:30:28;;;;;;;26.40;24.50;;;16.30;99.90;;;;;;4983498;28;20371;-72
2022/06/02 10:32:55;;;;;;;24.65;23.08;;;16.80;99.90;;;;;;4983423;28;20081;-71
2022/06/02 10:35:51;;;;;;;27.10;25.33;;;17.30;99.90;;;;;;4985232;28;20050;-73
2022/06/02 10:38:48;;;;;;;24.98;23.42;;;17.90;99.90;;;;;;4985638;28;20099;-72
2022/06/02 10:41:33;;;;;;;25.80;24.27;;;18.10;99.90;;;;;;4953512;28;20548;-72
2022/06/02 10:44:03;;;;;;;25.83;24.25;;;18.00;99.90;;;;;;4979629;28;20101;-72
2022/06/02 10:47:11;;;;;;;25.55;24.02;;;17.80;99.90;;;;;;4984818;28;20142;-72
2022/06/02 10:49:53;;;;;;;25.27;23.83;;;17.90;99.90;;;;;;4995987;28;20093;-70
2022/06/02 10:52:30;;;;;;;24.75;23.20;;;17.70;99.90;;;;;;4987375;28;20050;-70
2022/06/02 10:55:24;;;;;;;25.90;24.23;;;17.80;99.90;;;;;;4967945;28;20069;-70
2022/06/02 10:58:09;;;;;;;24.25;22.85;;;18.00;99.90;;;;;;4983929;28;20054;-70
2022/06/02 11:00:44;;;;;;;24.77;23.38;;;18.10;99.90;;;;;;4983649;28;20096;-70
2022/06/02 11:03:29;;;;;;;24.70;22.95;;;18.30;99.90;;;;;;4984721;28;20090;-71
2022/06/02 11:06:39;;;;;;;23.35;21.85;;;18.40;99.90;;;;;;4984353;28;20096;-71
2022/06/02 11:09:33;;;;;;;24.58;23.02;;;18.90;99.90;;;;;;4985129;28;20146;-71
2022/06/02 11:12:34;;;;;;;25.17;23.58;;;18.90;99.90;;;;;;4986010;28;20149;-71
2022/06/02 11:15:19;;;;;;;26.15;24.52;;;18.70;99.90;;;;;;4966626;28;20141;-70
2022/06/02 11:18:10;;;;;;;26.80;25.10;;;18.50;99.90;;;;;;4977959;28;20508;-71
2022/06/02 11:20:56;;;;;;;27.00;24.90;;;18.00;99.90;;;;;;4989493;28;20050;-71
2022/06/02 11:23:57;;;;;;;25.73;24.15;;;17.70;99.90;;;;;;4984972;28;20116;-72
2022/06/02 11:27:06;;;;;;;24.55;22.90;;;17.60;99.90;;;;;;4964832;28;20261;-72
2022/06/02 11:29:36;;;;;;;24.25;22.85;;;18.00;99.90;;;;;;4987852;28;20092;-70
2022/06/02 11:32:30;;;;;;;26.48;24.70;;;18.60;99.90;;;;;;4986279;28;20343;-72
2022/06/02 11:35:19;;;;;;;25.45;23.95;;;18.80;99.90;;;;;;4970603;28;20053;-72
2022/06/02 11:38:16;;;;;;;24.92;23.42;;;18.90;99.90;;;;;;4984772;28;20058;-71
2022/06/02 11:40:46;;;;;;;25.83;24.23;;;19.10;99.90;;;;;;4964910;28;20047;-70
2022/06/02 11:43:16;;;;;;;25.70;24.20;;;19.40;99.90;;;;;;4971879;28;20505;-70
2022/06/02 11:45:48;;;;;;;25.63;23.98;;;19.60;99.90;;;;;;4983152;28;20047;-70
2022/06/02 11:48:21;;;;;;;26.95;25.25;;;19.60;99.90;;;;;;4986965;28;20467;-71
2022/06/02 11:51:08;;;;;;;26.50;25.00;;;19.40;99.90;;;;;;4994708;28;20357;-73
2022/06/02 11:54:06;;;;;;;27.38;25.88;;;19.40;99.90;;;;;;4984803;28;20054;-69
2022/06/02 11:57:10;;;;;;;27.58;25.98;;;19.30;99.90;;;;;;4985345;28;20062;-71
2022/06/02 12:00:14;;;;;;;26.45;24.85;;;19.10;99.90;;;;;;4987407;28;20260;-71
2022/06/02 12:03:19;;;;;;;26.80;25.20;;;19.10;99.90;;;;;;4985999;28;20133;-71
2022/06/02 12:06:13;;;;;;;27.17;25.58;;;19.00;99.90;;;;;;4966061;28;20049;-72
2022/06/02 12:09:02;;;;;;;29.38;27.38;;;19.50;99.90;;;;;;4983046;28;20157;-71
2022/06/02 12:11:53;;;;;;;26.27;24.77;;;19.40;99.90;;;;;;4982653;28;20085;-71
2022/06/02 12:14:34;;;;;;;28.60;26.80;;;19.70;99.90;;;;;;4984226;28;20061;-71
2022/06/02 12:17:27;;;;;;;28.25;26.65;;;19.90;99.90;;;;;;4981851;28;20419;-71
2022/06/02 12:20:21;;;;;;;28.88;27.05;;;19.60;99.90;;;;;;4994114;28;20038;-71
2022/06/02 12:22:54;;;;;;;26.65;25.10;;;19.20;99.90;;;;;;5002349;28;20314;-71
2022/06/02 12:26:01;;;;;;;25.20;23.80;;;18.70;99.90;;;;;;4990224;28;20046;-71
2022/06/02 12:28:49;;;;;;;25.73;24.23;;;19.20;99.90;;;;;;4982971;28;20054;-72
2022/06/02 12:31:41;;;;;;;24.63;23.23;;;19.50;99.90;;;;;;4964063;28;20464;-71
2022/06/02 12:34:30;;;;;;;25.10;23.73;;;19.80;99.90;;;;;;4985421;28;20073;-71
2022/06/02 12:37:10;;;;;;;25.30;23.80;;;19.50;99.90;;;;;;4983289;28;20065;-71
2022/06/02 12:39:57;;;;;;;26.15;24.67;;;19.60;99.90;;;;;;4984281;28;20113;-71
2022/06/02 12:42:42;;;;;;;26.95;25.23;;;19.60;99.90;;;;;;4967282;28;20140;-71
2022/06/02 12:45:09;;;;;;;25.42;24.02;;;19.70;99.90;;;;;;4981753;28;20133;-72
2022/06/02 12:47:55;;;;;;;26.75;25.15;;;19.60;99.90;;;;;;4983536;28;20082;-71
2022/06/02 12:50:50;;;;;;;26.83;25.08;;;19.40;99.90;;;;;;4997766;28;20523;-70
2022/06/02 12:53:44;;;;;;;24.50;23.10;;;19.10;99.90;;;;;;4955301;28;20051;-70
2022/06/02 12:56:34;;;;;;;25.35;23.77;;;19.30;99.90;;;;;;4967021;28;20045;-71
2022/06/02 12:59:37;;;;;;;24.63;23.23;;;19.20;99.90;;;;;;4983988;28;20126;-73
2022/06/02 13:02:09;;;;;;;25.42;23.63;;;18.90;99.90;;;;;;4985825;28;20069;-72
2022/06/02 13:05:03;;;;;;;26.63;25.13;;;18.40;99.90;;;;;;4986109;28;20756;-70
2022/06/02 13:08:08;;;;;;;27.02;25.30;;;18.60;99.90;;;;;;4986318;28;20143;-71
2022/06/02 13:10:41;;;;;;;26.38;24.77;;;18.80;99.90;;;;;;4967301;28;20058;-72
2022/06/02 13:13:20;;;;;;;26.42;24.73;;;19.30;99.90;;;;;;4966519;28;20535;-71
2022/06/02 13:16:17;;;;;;;26.10;24.52;;;19.40;99.90;;;;;;4983427;28;20505;-71
2022/06/02 13:18:51;;;;;;;26.48;24.88;;;19.50;99.90;;;;;;4988680;28;20050;-70
2022/06/02 13:21:39;;;;;;;27.45;25.83;;;19.60;99.90;;;;;;4977456;28;20056;-71
2022/06/02 13:24:42;;;;;;;25.50;24.00;;;19.60;99.90;;;;;;4998725;28;20405;-69
2022/06/02 13:27:45;;;;;;;26.25;24.65;;;18.80;99.90;;;;;;4983361;28;20157;-71
2022/06/02 13:30:36;;;;;;;26.13;24.63;;;18.90;99.90;;;;;;4982937;28;20054;-71
2022/06/02 13:33:35;;;;;;;27.20;25.58;;;18.80;99.90;;;;;;4982053;28;20055;-71
2022/06/02 13:36:34;;;;;;;26.50;25.02;;;19.00;98.30;;;;;;4974070;28;20387;-73
2022/06/02 13:39:03;;;;;;;25.40;23.85;;;18.60;99.10;;;;;;4965791;28;20104;-71
2022/06/02 13:41:43;;;;;;;25.35;24.05;;;18.90;99.90;;;;;;4965079;28;20228;-73
2022/06/02 13:44:13;;;;;;;26.25;24.75;;;19.10;99.70;;;;;;4983850;28;20053;-72
2022/06/02 13:47:08;;;;;;;26.75;25.13;;;19.60;99.90;;;;;;4998373;23;20048;-73
2022/06/02 13:50:29;;;;;;;26.13;24.63;;;20.10;99.90;;;;;;4992055;28;20038;-75
2022/06/02 13:53:15;;;;;;;26.05;24.55;;;20.20;99.90;;;;;;4927290;29;20050;-74
2022/06/02 13:58:43;;;;;;;25.63;24.02;;;19.50;99.90;;;;;;4987287;28;20042;-73
2022/06/02 14:01:43;;;;;;;27.48;25.88;;;19.80;99.90;;;;;;4986796;28;20049;-74
2022/06/02 14:04:21;;;;;;;26.73;25.23;;;20.10;99.90;;;;;;4992829;28;20046;-74
2022/06/02 14:07:13;;;;;;;28.80;27.17;;;20.30;99.90;;;;;;4969367;28;20417;-74
2022/06/02 14:10:07;;;;;;;26.67;25.17;;;20.30;99.90;;;;;;4970374;28;20054;-74
2022/06/02 14:12:34;;;;;;;25.77;24.38;;;20.40;99.80;;;;;;4986008;28;20125;-73
2022/06/02 14:15:14;;;;;;;24.55;23.13;;;20.70;99.90;;;;;;4993506;28;20116;-73
2022/06/02 14:18:05;;;;;;;25.95;24.00;;;20.90;98.70;;;;;;4987225;28;20143;-73
2022/06/02 14:20:51;;;;;;;26.02;24.67;;;21.00;99.20;;;;;;4994746;28;20046;-75
2022/06/02 14:23:33;;;;;;;27.58;25.98;;;21.00;99.40;;;;;;4997845;28;20509;-75
2022/06/02 14:26:13;;;;;;;27.77;26.05;;;20.10;99.90;;;;;;4968755;28;20054;-73
2022/06/02 14:29:13;;;;;;;26.83;25.20;;;19.80;99.90;;;;;;4969418;28;20082;-73
2022/06/02 14:32:20;;;;;;;28.08;26.38;;;20.10;99.90;;;;;;4966497;28;20046;-72
2022/06/02 14:35:24;;;;;;;27.08;25.38;;;19.00;99.90;;;;;;4944173;28;20157;-72